Skip to main content

NOAA/GLERL Met Station at Muskegon, MI

Previous 5 days (top of hour only)
See also Previous 3 Hours (2 minute increments)
Jump down to Data
Switch to [English][Metric]
Zoom: Click and drag, Pan: shift-click and drag, Unzoom: double-click, Unzoom All






Note: Speed = mean wind during 2-minute period at top of hour,
Gust = max wind during 2-minute period at top of hour,
Peak = max wind during entire hour.
• See also 5-day windrose plot


NOAA/GLERL Met Station at Muskegon, MI

Previous 5 days (top of hour only)
See also Previous 3 Hours (2 minute increments)
Jump up to Graphs
Switch to [English][Metric]
                  Wind  Wind  Wind   Air   Dew   Rel     Sta   PAR
                   Spd   Gst   Dir  Temp    Pt   Hum    Pres uE/m2/
YYYY-MM-DD   EST   m/s   m/s   deg     C     C     %      mb   sec
2023-12-01 06:00 -99.0 -99.0   -99   0.7  -1.2  86.8  992.20     2
2023-12-01 05:00 -99.0 -99.0   -99   0.8  -0.9  88.1  992.10     2
2023-12-01 04:00 -99.0 -99.0   -99   0.2  -1.1  90.7  992.80     2
2023-12-01 03:00 -99.0 -99.0   -99   0.6  -1.0  88.8  993.00     2
2023-12-01 02:00 -99.0 -99.0   -99   1.2  -0.7  86.9  992.40     2
2023-12-01 01:00 -99.0 -99.0   -99   1.2  -0.6  87.5  992.20     2
2023-12-01 00:00 -99.0 -99.0   -99   1.3  -0.4  88.3  991.40     2
2023-11-30 23:00 -99.0 -99.0   -99   1.0  -0.2  91.5  990.70     2
2023-11-30 22:00 -99.0 -99.0   -99   2.1  -0.1  85.4  990.60     2
2023-11-30 21:00 -99.0 -99.0   -99   4.3   0.9  78.3  989.70     2
2023-11-30 20:00 -99.0 -99.0   -99   4.9   1.4  78.2  989.20     2
2023-11-30 19:00 -99.0 -99.0   -99   5.4   2.7  82.6  988.40     2
2023-11-30 18:00 -99.0 -99.0   -99   6.9   3.7  79.9  987.80     2
2023-11-30 17:00 -99.0 -99.0   -99   7.3   3.6  77.2  987.00    23
2023-11-30 16:00 -99.0 -99.0   -99   7.3   3.5  76.7  986.00   176
2023-11-30 15:00 -99.0 -99.0   -99   7.0   3.9  80.6  985.70   387
2023-11-30 14:00 -99.0 -99.0   -99   7.1   2.8  74.0  985.60   432
2023-11-30 13:00 -99.0 -99.0   -99   7.2   3.2  75.6  985.40  1511
2023-11-30 12:00 -99.0 -99.0   -99   7.1   3.5  77.7  985.20   686
2023-11-30 11:00 -99.0 -99.0   -99   7.3   3.8  78.1  985.40  1319
2023-11-30 10:00 -99.0 -99.0   -99   7.0   3.4  77.6  985.50   836
2023-11-30 09:00 -99.0 -99.0   -99   7.1   3.9  80.1  985.70   556
2023-11-30 08:00 -99.0 -99.0   -99   5.1   4.1  92.9  986.50    20
2023-11-30 07:00 -99.0 -99.0   -99   6.4   3.1  79.3  987.00     2
2023-11-30 06:00 -99.0 -99.0   -99   6.0   2.7  79.1  987.70     2
2023-11-30 05:00 -99.0 -99.0   -99   6.0   2.4  77.6  988.50     2
2023-11-30 04:00 -99.0 -99.0   -99   5.6   2.4  79.8  988.90     2
2023-11-30 03:00 -99.0 -99.0   -99   5.5   2.1  78.9  989.00     2
2023-11-30 02:00 -99.0 -99.0   -99   5.2   2.4  81.9  989.40     2
2023-11-30 01:00 -99.0 -99.0   -99   5.4   2.4  80.9  989.60     2
2023-11-30 00:00 -99.0 -99.0   -99   5.3   2.3  80.8  989.60     2
2023-11-29 23:00 -99.0 -99.0   -99   5.5   1.7  76.2  989.70     2
2023-11-29 22:00 -99.0 -99.0   -99   5.3   1.4  75.7  989.70     2
2023-11-29 21:00 -99.0 -99.0   -99   5.3   0.4  70.7  990.00     2
2023-11-29 20:00 -99.0 -99.0   -99   5.1   1.0  74.5  990.10     2
2023-11-29 19:00 -99.0 -99.0   -99   4.9   0.2  71.5  989.90     2
2023-11-29 18:00 -99.0 -99.0   -99   4.2   0.0  74.0  989.80     2
2023-11-29 17:00 -99.0 -99.0   -99   3.5  -0.2  76.8  989.40    71
2023-11-29 16:00 -99.0 -99.0   -99   2.9  -1.1  75.0  989.10   260
2023-11-29 15:00 -99.0 -99.0   -99   2.7  -0.3  80.3  988.50   224
2023-11-29 14:00 -99.0 -99.0   -99   2.2  -0.8  80.8  988.30   406
2023-11-29 13:00 -99.0 -99.0   -99   2.0  -0.7  82.1  988.50   267
2023-11-29 12:00 -99.0 -99.0   -99   1.9  -1.1  80.6  988.60   281
2023-11-29 11:00 -99.0 -99.0   -99   1.5  -1.7  79.4  989.00   230
2023-11-29 10:00 -99.0 -99.0   -99   1.3  -2.1  78.2  989.00   123
2023-11-29 09:00 -99.0 -99.0   -99   1.4  -2.1  77.5  989.10    36
2023-11-29 08:00 -99.0 -99.0   -99   1.7  -2.3  74.6  989.00     5
2023-11-29 07:00 -99.0 -99.0   -99   2.3  -2.1  72.8  989.00     2
2023-11-29 06:00 -99.0 -99.0   -99   2.8  -2.3  69.0  989.10     2
2023-11-29 05:00 -99.0 -99.0   -99   2.4  -1.9  73.1  990.10     2
2023-11-29 04:00 -99.0 -99.0   -99   1.5  -2.9  72.7  991.20     2
2023-11-29 03:00 -99.0 -99.0   -99   0.5  -3.5  74.3  992.90     2
2023-11-29 02:00 -99.0 -99.0   -99  -0.2  -4.5  73.0  993.50     2
2023-11-29 01:00 -99.0 -99.0   -99  -0.6  -4.7  73.8  995.00     2
2023-11-29 00:00 -99.0 -99.0   -99  -0.6  -5.0  72.4  995.50     2
2023-11-28 23:00 -99.0 -99.0   -99  -1.1  -6.1  68.7  996.10     2
2023-11-28 22:00 -99.0 -99.0   -99  -0.9  -5.8  69.2  996.90     2
2023-11-28 21:00 -99.0 -99.0   -99  -1.2  -6.6  66.8  997.50     2
2023-11-28 20:00 -99.0 -99.0   -99  -1.4  -6.9  66.3  998.30     2
2023-11-28 19:00 -99.0 -99.0   -99  -1.5  -7.4  64.0  998.90     2
2023-11-28 18:00 -99.0 -99.0   -99  -2.0  -8.0  63.6  999.80     2
2023-11-28 17:00 -99.0 -99.0   -99  -2.5  -8.3  64.6 1000.00    25
2023-11-28 16:00 -99.0 -99.0   -99  -2.8  -8.7  64.1 1000.40   175
2023-11-28 15:00 -99.0 -99.0   -99  -3.0  -8.5  65.8 1000.40   348
2023-11-28 14:00 -99.0 -99.0   -99  -3.0  -8.1  68.2 1000.70   564
2023-11-28 13:00 -99.0 -99.0   -99  -3.4  -7.7  72.2 1001.20   230
2023-11-28 12:00 -99.0 -99.0   -99  -3.5  -7.8  72.0 1001.40   226
2023-11-28 11:00 -99.0 -99.0   -99  -3.4  -7.1  75.9 1001.30   192
2023-11-28 10:00 -99.0 -99.0   -99  -3.3  -8.3  68.7 1000.40   302
2023-11-28 09:00 -99.0 -99.0   -99  -4.0  -7.7  75.6  999.60   166
2023-11-28 08:00 -99.0 -99.0   -99  -4.5  -8.7  72.6  998.70     9
2023-11-28 07:00 -99.0 -99.0   -99  -5.8  -8.7  80.2  998.00     2
2023-11-28 06:00 -99.0 -99.0   -99  -5.4  -8.6  78.2  997.10     2
2023-11-28 05:00 -99.0 -99.0   -99  -4.6  -9.0  71.6  996.30     2
2023-11-28 04:00 -99.0 -99.0   -99  -4.9  -9.1  72.4  995.80     2
2023-11-28 03:00 -99.0 -99.0   -99  -4.8  -9.2  71.3  995.60     2
2023-11-28 02:00 -99.0 -99.0   -99  -4.7  -9.5  69.5  995.10     2
2023-11-28 01:00 -99.0 -99.0   -99  -4.4  -8.6  72.6  994.80     2
2023-11-28 00:00 -99.0 -99.0   -99  -4.9  -8.0  78.8  994.60     2
2023-11-27 23:00 -99.0 -99.0   -99  -4.2  -7.9  75.4  994.50     2
2023-11-27 22:00 -99.0 -99.0   -99  -4.3  -8.8  70.8  994.30     2
2023-11-27 21:00 -99.0 -99.0   -99  -4.3  -9.2  68.7  994.00     2
2023-11-27 20:00 -99.0 -99.0   -99  -3.7  -8.3  70.7  993.60     2
2023-11-27 19:00 -99.0 -99.0   -99  -3.5  -8.2  69.9  993.50     2
2023-11-27 18:00 -99.0 -99.0   -99  -3.3  -7.6  72.2  992.90     2
2023-11-27 17:00 -99.0 -99.0   -99  -3.4  -7.4  73.7  992.50     7
2023-11-27 16:00 -99.0 -99.0   -99  -3.7  -7.6  74.4  991.90    56
2023-11-27 15:00 -99.0 -99.0   -99  -3.8  -7.5  75.7  991.60    91
2023-11-27 14:00 -99.0 -99.0   -99  -3.9  -7.4  76.9  991.60   218
2023-11-27 13:00 -99.0 -99.0   -99  -4.1  -7.8  75.8  991.70   182
2023-11-27 12:00 -99.0 -99.0   -99  -3.4  -6.8  77.2  991.80   159
2023-11-27 11:00 -99.0 -99.0   -99  -3.4  -7.7  72.3  992.10   179
2023-11-27 10:00 -99.0 -99.0   -99  -2.9  -7.9  68.3  991.70   168
2023-11-27 09:00 -99.0 -99.0   -99  -2.2  -6.9  70.3  991.20    80
2023-11-27 08:00 -99.0 -99.0   -99  -1.9  -6.5  70.9  990.90     7
2023-11-27 07:00 -99.0 -99.0   -99  -1.9  -6.4  71.3  990.60     2
2023-11-27 06:00 -99.0 -99.0   -99  -1.8  -6.9  68.3  990.50     2
2023-11-27 05:00 -99.0 -99.0   -99  -1.2  -7.0  65.0  989.90     2
2023-11-27 04:00 -99.0 -99.0   -99  -0.4  -5.7  67.3  989.30     2
2023-11-27 03:00 -99.0 -99.0   -99   0.9  -5.0  64.7  988.50     2
2023-11-27 02:00 -99.0 -99.0   -99   1.5  -3.6  69.1  987.50     2
2023-11-27 01:00 -99.0 -99.0   -99   1.7  -3.0  71.2  987.20     2
2023-11-27 00:00 -99.0 -99.0   -99   1.4  -3.0  72.5  986.50     2
2023-11-26 23:00 -99.0 -99.0   -99   1.2  -2.6  75.5  986.20     2
2023-11-26 22:00 -99.0 -99.0   -99   1.7  -1.9  77.0  985.40     2
2023-11-26 21:00 -99.0 -99.0   -99   2.1  -1.6  76.3  984.60     2
2023-11-26 20:00 -99.0 -99.0   -99   2.6  -1.4  75.0  984.50     2
2023-11-26 19:00 -99.0 -99.0   -99   2.0   0.0  86.6  984.20     2